Time;durP1;ratioP1;P1;durP2;ratioP2;P2;SDS_P1;SDS_P2;PMS_P1;PMS_P2;Temp;Humidity;BMP_temperature;BMP_pressure;BME280_temperature;BME280_humidity;BME280_pressure;Samples;Min_cycle;Max_cycle;Signal;HPM_P1;HPM_P2
2022/01/01 00:01:52;;;;;;;;;;;14.40;99.90;;;;;;7353355;19;112515;-84
2022/01/01 00:04:19;;;;;;;;;;;14.40;99.90;;;;;;7344214;19;111029;-81
2022/01/01 00:06:46;;;;;;;;;;;14.40;99.90;;;;;;7345163;19;111489;-82
2022/01/01 00:09:13;;;;;;;;;;;14.40;99.90;;;;;;7343093;19;110833;-82
2022/01/01 00:11:40;;;;;;;;;;;14.30;99.90;;;;;;7348297;19;110601;-81
2022/01/01 00:14:07;;;;;;;;;;;14.30;99.90;;;;;;7342579;19;111951;-81
2022/01/01 00:16:34;;;;;;;;;;;14.30;99.90;;;;;;7345598;19;109703;-81
2022/01/01 00:19:02;;;;;;;;;;;14.30;99.90;;;;;;7344036;19;113531;-83
2022/01/01 00:21:28;;;;;;;;;;;14.30;99.90;;;;;;7343988;19;113643;-80
2022/01/01 00:23:55;;;;;;;;;;;14.20;99.90;;;;;;7350141;19;110234;-83
2022/01/01 00:26:22;;;;;;;;;;;14.30;99.90;;;;;;7344470;19;111987;-83
2022/01/01 00:28:49;;;;;;;;;;;14.20;99.90;;;;;;7344053;19;109374;-80
2022/01/01 00:31:16;;;;;;;;;;;14.30;99.90;;;;;;7343162;19;111359;-82
2022/01/01 00:33:43;;;;;;;;;;;14.30;99.90;;;;;;7344458;19;111702;-81
2022/01/01 00:36:10;;;;;;;;;;;14.30;99.90;;;;;;7344353;19;110522;-82
2022/01/01 00:38:37;;;;;;;;;;;14.30;99.90;;;;;;7346404;19;111328;-81
2022/01/01 00:41:03;;;;;;;;;;;14.20;99.90;;;;;;7340956;19;111752;-81
2022/01/01 00:43:30;;;;;;;;;;;14.30;99.90;;;;;;7347211;19;109309;-82
2022/01/01 00:45:57;;;;;;;;;;;14.30;99.90;;;;;;7346686;19;110936;-81
2022/01/01 00:48:24;;;;;;;;;;;14.30;99.90;;;;;;7347100;19;109658;-81
2022/01/01 00:50:51;;;;;;;;;;;14.20;99.90;;;;;;7343397;19;110874;-81
2022/01/01 00:53:17;;;;;;;;;;;14.20;99.90;;;;;;7344393;19;111242;-81
2022/01/01 00:55:44;;;;;;;;;;;14.20;99.90;;;;;;7342799;19;109444;-80
2022/01/01 00:58:11;;;;;;;;;;;14.20;99.90;;;;;;7345062;19;110996;-80
2022/01/01 01:00:38;;;;;;;;;;;14.20;99.90;;;;;;7343300;19;111648;-80
2022/01/01 01:03:23;;;;;;;;;;;14.10;99.90;;;;;;7344456;19;109389;-83
2022/01/01 01:05:55;;;;;;;;;;;14.10;99.90;;;;;;7349919;19;111098;-80
2022/01/01 01:08:21;;;;;;;;;;;14.10;99.90;;;;;;7340864;19;109618;-81
2022/01/01 01:10:48;;;;;;;;;;;14.10;99.90;;;;;;7343884;19;110600;-82
2022/01/01 01:13:16;;;;;;;;;;;14.10;99.90;;;;;;7341633;19;112181;-81
2022/01/01 01:15:43;;;;;;;;;;;14.00;99.90;;;;;;7343259;19;109444;-80
2022/01/01 01:18:10;;;;;;;;;;;14.00;99.90;;;;;;7341657;19;110775;-81
2022/01/01 01:20:37;;;;;;;;;;;14.00;99.90;;;;;;7343388;19;111812;-81
2022/01/01 01:23:04;;;;;;;;;;;13.90;99.90;;;;;;7343263;19;110928;-84
2022/01/01 01:25:38;;;;;;;;;;;13.90;99.90;;;;;;7344951;19;111283;-80
2022/01/01 01:28:08;;;;;;;;;;;13.90;99.90;;;;;;7347005;19;111380;-81
2022/01/01 01:30:35;;;;;;;;;;;13.90;99.90;;;;;;7342980;19;110798;-83
2022/01/01 01:33:03;;;;;;;;;;;13.80;99.90;;;;;;7345703;19;111730;-81
2022/01/01 01:35:30;;;;;;;;;;;13.80;99.90;;;;;;7339465;19;112318;-81
2022/01/01 01:37:57;;;;;;;;;;;13.70;99.90;;;;;;7343559;19;113689;-81
2022/01/01 01:40:24;;;;;;;;;;;13.70;99.90;;;;;;7341933;19;115363;-81
2022/01/01 01:42:51;;;;;;;;;;;13.70;99.90;;;;;;7342371;19;109427;-81
2022/01/01 01:45:21;;;;;;;;;;;13.60;99.90;;;;;;7341838;19;109820;-81
2022/01/01 01:47:49;;;;;;;;;;;13.60;99.90;;;;;;7343250;19;111844;-83
2022/01/01 01:50:17;;;;;;;;;;;13.50;99.90;;;;;;7348995;19;110648;-80
2022/01/01 01:52:45;;;;;;;;;;;13.50;99.90;;;;;;7339754;19;112215;-80
2022/01/01 01:55:12;;;;;;;;;;;13.50;99.90;;;;;;7340986;19;109382;-81
2022/01/01 01:57:42;;;;;;;;;;;13.50;99.90;;;;;;7340301;19;110722;-83
2022/01/01 02:01:12;;;;;;;;;;;13.50;99.90;;;;;;7341767;19;112028;-81
2022/01/01 02:02:58;;;;;;;;;;;13.50;99.90;;;;;;7339504;19;109410;-85
2022/01/01 02:05:26;;;;;;;;;;;13.40;99.90;;;;;;7338112;19;113567;-87
2022/01/01 02:07:53;;;;;;;;;;;13.50;99.90;;;;;;7342462;19;112935;-85
2022/01/01 02:10:20;;;;;;;;;;;13.50;99.90;;;;;;7345520;19;109349;-87
2022/01/01 02:12:52;;;;;;;;;;;13.50;99.90;;;;;;7357063;19;111049;-88
2022/01/01 02:15:37;;;;;;;;;;;13.50;99.90;;;;;;7348289;19;109950;-86
2022/01/01 02:18:04;;;;;;;;;;;13.50;99.90;;;;;;7349781;19;110994;-85
2022/01/01 02:20:31;;;;;;;;;;;13.50;99.90;;;;;;7347069;19;110541;-86
2022/01/01 02:23:00;;;;;;;;;;;13.60;99.90;;;;;;7350261;19;109750;-85
2022/01/01 02:25:28;;;;;;;;;;;13.60;99.90;;;;;;7350241;19;110860;-85
2022/01/01 02:27:55;;;;;;;;;;;13.60;99.90;;;;;;7347579;19;114191;-86
2022/01/01 02:30:22;;;;;;;;;;;13.60;99.90;;;;;;7351436;19;109727;-85
2022/01/01 02:32:49;;;;;;;;;;;13.60;99.90;;;;;;7345473;19;112769;-85
2022/01/01 02:35:17;;;;;;;;;;;13.60;99.90;;;;;;7356444;19;110125;-86
2022/01/01 02:37:45;;;;;;;;;;;13.60;99.90;;;;;;7347282;19;111146;-84
2022/01/01 02:40:13;;;;;;;;;;;13.60;99.90;;;;;;7350554;19;114830;-85
2022/01/01 02:42:42;;;;;;;;;;;13.60;99.90;;;;;;7347033;19;109298;-85
2022/01/01 02:45:11;;;;;;;;;;;13.60;99.90;;;;;;7349164;19;110997;-85
2022/01/01 02:47:38;;;;;;;;;;;13.60;99.90;;;;;;7346110;19;111842;-87
2022/01/01 02:50:06;;;;;;;;;;;13.60;99.90;;;;;;7348086;19;109320;-86
2022/01/01 02:52:33;;;;;;;;;;;13.60;99.90;;;;;;7347640;19;111286;-85
2022/01/01 02:55:00;;;;;;;;;;;13.60;99.90;;;;;;7347787;19;112315;-86
2022/01/01 02:57:27;;;;;;;;;;;13.60;99.90;;;;;;7353868;19;109533;-85
2022/01/01 02:59:54;;;;;;;;;;;13.70;99.90;;;;;;7346530;19;112458;-85
2022/01/01 03:02:21;;;;;;;;;;;13.70;99.90;;;;;;7350483;19;110284;-85
2022/01/01 03:04:48;;;;;;;;;;;13.70;99.90;;;;;;7344741;19;111663;-85
2022/01/01 03:07:16;;;;;;;;;;;13.70;99.90;;;;;;7343579;19;112486;-90
2022/01/01 03:09:43;;;;;;;;;;;13.70;99.90;;;;;;7343478;19;111367;-90
2022/01/01 03:12:10;;;;;;;;;;;13.70;99.90;;;;;;7346988;19;113180;-92
2022/01/01 03:14:40;;;;;;;;;;;13.70;99.90;;;;;;7345509;19;113085;-90
2022/01/01 04:28:15;;;;;;;;;;;14.00;99.90;;;;;;7339910;19;109932;-89
2022/01/01 05:38:08;;;;;;;;;;;13.70;99.90;;;;;;5844914;19;3969239;-90
2022/01/01 05:40:51;;;;;;;;;;;13.60;99.90;;;;;;7379766;19;109613;-90
2022/01/01 06:25:47;;;;;;;;;;;12.90;99.90;;;;;;7344384;19;109878;-90
2022/01/01 06:28:14;;;;;;;;;;;12.80;99.90;;;;;;7348630;19;114780;-89
2022/01/01 06:30:41;;;;;;;;;;;12.80;99.90;;;;;;7345863;19;109951;-91
2022/01/01 06:33:12;;;;;;;;;;;12.80;99.90;;;;;;7351002;19;113514;-91
2022/01/01 06:35:40;;;;;;;;;;;12.80;99.90;;;;;;7348347;19;114111;-91
2022/01/01 06:38:07;;;;;;;;;;;12.80;99.90;;;;;;7348840;19;109357;-90
2022/01/01 06:40:35;;;;;;;;;;;12.80;99.90;;;;;;7353639;19;113317;-91
2022/01/01 06:43:02;;;;;;;;;;;12.80;99.90;;;;;;7349199;19;109929;-90
2022/01/01 06:45:29;;;;;;;;;;;12.80;99.90;;;;;;7348595;19;111730;-90
2022/01/01 06:47:56;;;;;;;;;;;12.80;99.90;;;;;;7348519;19;112676;-90
2022/01/01 06:50:23;;;;;;;;;;;12.80;99.90;;;;;;7346805;19;110104;-91
2022/01/01 06:52:50;;;;;;;;;;;12.80;99.90;;;;;;7346532;19;111549;-91
2022/01/01 06:55:17;;;;;;;;;;;12.80;99.90;;;;;;7348818;19;113905;-91
2022/01/01 06:57:44;;;;;;;;;;;12.90;99.90;;;;;;7347598;19;109843;-92
2022/01/01 07:00:12;;;;;;;;;;;12.90;99.90;;;;;;7350705;19;111721;-92
2022/01/01 07:02:44;;;;;;;;;;;12.80;99.90;;;;;;7352864;19;110915;-91
2022/01/01 07:05:19;;;;;;;;;;;12.80;99.90;;;;;;7349377;19;113782;-91
2022/01/01 07:07:46;;;;;;;;;;;12.80;99.90;;;;;;7346631;19;114568;-91
2022/01/01 07:10:13;;;;;;;;;;;12.80;99.90;;;;;;7348412;19;109783;-91
2022/01/01 07:12:40;;;;;;;;;;;12.90;99.90;;;;;;7345870;19;112692;-90
2022/01/01 07:15:09;;;;;;;;;;;12.80;99.90;;;;;;7346276;19;113000;-90
2022/01/01 07:17:37;;;;;;;;;;;12.90;99.90;;;;;;7348467;19;109315;-91
2022/01/01 07:20:04;;;;;;;;;;;12.80;99.90;;;;;;7347472;19;114059;-91
2022/01/01 07:22:32;;;;;;;;;;;12.80;99.90;;;;;;7349326;19;114387;-90
2022/01/01 07:25:03;;;;;;;;;;;12.80;99.90;;;;;;7351930;19;109331;-91
2022/01/01 07:33:58;;;;;;;;;;;12.70;99.90;;;;;;7344660;19;109363;-93
2022/01/01 07:36:25;;;;;;;;;;;12.70;99.90;;;;;;7348571;19;114753;-92
2022/01/01 07:38:58;;;;;;;;;;;12.70;99.90;;;;;;7348026;19;109488;-91
2022/01/01 07:41:25;;;;;;;;;;;12.60;99.90;;;;;;7347955;19;112204;-92
2022/01/01 07:43:52;;;;;;;;;;;12.60;99.90;;;;;;7346630;19;114181;-92
2022/01/01 07:46:20;;;;;;;;;;;12.60;99.90;;;;;;7352885;19;109557;-91
2022/01/01 07:48:48;;;;;;;;;;;12.60;99.90;;;;;;7345697;19;112872;-92
2022/01/01 07:51:18;;;;;;;;;;;12.50;99.90;;;;;;7346285;19;109746;-91
2022/01/01 07:53:45;;;;;;;;;;;12.50;99.90;;;;;;7350023;19;111331;-91
2022/01/01 07:56:12;;;;;;;;;;;12.50;99.90;;;;;;7345821;19;114861;-91
2022/01/01 07:58:39;;;;;;;;;;;12.50;99.90;;;;;;7349835;19;109876;-91
2022/01/01 08:01:07;;;;;;;;;;;12.50;99.90;;;;;;7345930;19;113801;-92
2022/01/01 08:03:42;;;;;;;;;;;12.50;99.90;;;;;;7348764;19;113386;-93
2022/01/01 08:06:16;;;;;;;;;;;12.50;99.90;;;;;;7347701;19;109493;-92
2022/01/01 08:08:51;;;;;;;;;;;12.50;99.90;;;;;;7352743;19;112684;-92
2022/01/01 08:11:25;;;;;;;;;;;12.50;99.90;;;;;;7346489;19;110171;-93
2022/01/01 08:13:56;;;;;;;;;;;12.50;99.90;;;;;;7346616;19;114962;-91
2022/01/01 08:16:24;;;;;;;;;;;12.50;99.90;;;;;;7348546;19;115365;-92
2022/01/01 08:18:53;;;;;;;;;;;12.50;99.90;;;;;;7346896;19;109356;-90
2022/01/01 08:21:20;;;;;;;;;;;12.50;99.90;;;;;;7350540;19;111496;-93
2022/01/01 08:23:47;;;;;;;;;;;12.50;99.90;;;;;;7345081;19;113778;-91
2022/01/01 08:26:14;;;;;;;;;;;12.50;99.90;;;;;;7349529;19;109367;-92
2022/01/01 08:28:48;;;;;;;;;;;12.50;99.90;;;;;;7346247;19;112614;-92
2022/01/01 08:31:18;;;;;;;;;;;12.50;99.90;;;;;;7350968;19;113426;-92
2022/01/01 08:33:55;;;;;;;;;;;12.50;99.90;;;;;;7346610;19;112509;-92
2022/01/01 08:36:25;;;;;;;;;;;12.50;99.90;;;;;;7347095;19;112989;-93
2022/01/01 08:39:00;;;;;;;;;;;12.50;99.90;;;;;;7345445;19;109516;-92
2022/01/01 08:41:33;;;;;;;;;;;12.50;99.90;;;;;;7345900;19;113567;-92
2022/01/01 08:44:02;;;;;;;;;;;12.50;99.90;;;;;;7347774;19;112532;-93
2022/01/01 08:46:32;;;;;;;;;;;12.50;99.90;;;;;;7345578;19;111386;-92
2022/01/01 08:49:08;;;;;;;;;;;12.50;99.90;;;;;;7348356;19;114158;-91
2022/01/01 08:51:37;;;;;;;;;;;12.50;99.90;;;;;;7343865;19;113805;-93
2022/01/01 08:54:10;;;;;;;;;;;12.50;99.90;;;;;;7351341;19;110609;-92
2022/01/01 09:52:04;;;;;;;;;;;12.70;99.90;;;;;;7346145;19;109862;-85
2022/01/01 09:54:31;;;;;;;;;;;12.70;99.90;;;;;;7347406;19;109511;-85
2022/01/01 09:56:58;;;;;;;;;;;12.70;99.90;;;;;;7349024;19;110847;-85
2022/01/01 09:59:25;;;;;;;;;;;12.70;99.90;;;;;;7347853;19;114948;-85
2022/01/01 10:01:52;;;;;;;;;;;12.70;99.90;;;;;;7350703;19;109559;-85
2022/01/01 10:04:19;;;;;;;;;;;12.70;99.90;;;;;;7347403;19;110904;-85
2022/01/01 10:07:03;;;;;;;;;;;12.80;99.90;;;;;;7355001;19;111712;-85
2022/01/01 10:09:39;;;;;;;;;;;12.70;99.90;;;;;;7347552;19;113853;-89
2022/01/01 10:12:17;;;;;;;;;;;12.80;99.90;;;;;;7347377;19;115240;-88
2022/01/01 10:14:49;;;;;;;;;;;12.90;99.90;;;;;;7346222;19;109424;-89
2022/01/01 10:21:33;;;;;;;;;;;;;;;;;;;;;
2022/01/01 10:28:16;;;;;;;;;;;;;;;;;;;;;
2022/01/01 10:38:23;;;;;;;;;;;13.40;99.90;;;;;;7345173;19;110527;-90
2022/01/01 11:11:31;;;;;;;;;;;14.20;99.90;;;;;;6379269;19;15837670;-89
2022/01/01 11:14:27;;;;;;;;;;;14.30;99.90;;;;;;7374363;19;111033;-89
2022/01/01 11:17:03;;;;;;;;;;;14.40;99.90;;;;;;7376496;19;113655;-89
2022/01/01 11:19:45;;;;;;;;;;;14.50;99.90;;;;;;7379775;19;112170;-89
2022/01/01 11:22:27;;;;;;;;;;;14.60;99.90;;;;;;7375761;19;110896;-88
2022/01/01 11:25:03;;;;;;;;;;;14.60;99.90;;;;;;7379566;19;113664;-89
2022/01/01 11:27:31;;;;;;;;;;;14.70;99.90;;;;;;7375596;19;112555;-89
2022/01/01 11:30:03;;;;;;;;;;;14.90;99.90;;;;;;7382131;19;109841;-88
2022/01/01 11:32:52;;;;;;;;;;;14.90;99.90;;;;;;7376620;19;114539;-88
2022/01/01 11:35:21;;;;;;;;;;;15.00;99.90;;;;;;7377119;19;109887;-88
2022/01/01 11:37:59;;;;;;;;;;;15.10;99.90;;;;;;7378952;19;111092;-88
2022/01/01 11:40:27;;;;;;;;;;;15.10;99.90;;;;;;7374812;19;114608;-87
2022/01/01 11:42:54;;;;;;;;;;;15.20;99.90;;;;;;7379134;19;109565;-87
2022/01/01 11:45:41;;;;;;;;;;;15.20;99.90;;;;;;7373725;19;111366;-87
2022/01/01 11:48:26;;;;;;;;;;;15.30;99.90;;;;;;7377432;19;114978;-87
2022/01/01 11:50:53;;;;;;;;;;;15.30;99.90;;;;;;7375530;19;109277;-87
2022/01/01 11:53:28;;;;;;;;;;;15.40;99.90;;;;;;7381603;19;113067;-87
2022/01/01 11:56:08;;;;;;;;;;;15.30;99.90;;;;;;7377692;19;109417;-90
2022/01/01 11:58:50;;;;;;;;;;;15.40;99.90;;;;;;7374617;19;112244;-87
2022/01/01 12:01:22;;;;;;;;;;;15.40;99.90;;;;;;7377594;19;111839;-87
2022/01/01 12:03:50;;;;;;;;;;;15.40;99.90;;;;;;7376166;19;109425;-89
2022/01/01 12:06:18;;;;;;;;;;;15.50;99.90;;;;;;7378051;19;113354;-89
2022/01/01 12:08:50;;;;;;;;;;;15.50;99.90;;;;;;7349926;19;115217;-88
2022/01/01 12:11:30;;;;;;;;;;;15.60;99.90;;;;;;7346967;19;109466;-89
2022/01/01 12:13:59;;;;;;;;;;;15.60;99.90;;;;;;7349395;19;113785;-88
2022/01/01 12:16:26;;;;;;;;;;;15.70;99.90;;;;;;7351622;19;114372;-86
2022/01/01 12:19:02;;;;;;;;;;;15.80;99.90;;;;;;7348982;19;113524;-90
2022/01/01 12:21:37;;;;;;;;;;;15.80;99.90;;;;;;7346031;19;117074;-88
2022/01/01 12:24:08;;;;;;;;;;;15.90;99.90;;;;;;7349652;19;111009;-87
2022/01/01 12:26:35;;;;;;;;;;;16.00;99.90;;;;;;7347044;19;113911;-87
2022/01/01 12:29:03;;;;;;;;;;;16.10;99.90;;;;;;7349219;19;116162;-87
2022/01/01 12:31:30;;;;;;;;;;;16.20;99.90;;;;;;7345657;19;110449;-86
2022/01/01 12:34:07;;;;;;;;;;;16.30;99.90;;;;;;7348326;19;113632;-87
2022/01/01 12:36:34;;;;;;;;;;;16.40;99.90;;;;;;7347560;19;114919;-87
2022/01/01 12:39:04;;;;;;;;;;;16.40;99.90;;;;;;7352532;19;109483;-87
2022/01/01 12:41:32;;;;;;;;;;;16.40;99.90;;;;;;7348925;19;115070;-87
2022/01/01 12:44:00;;;;;;;;;;;16.40;99.90;;;;;;7343378;19;109835;-88
2022/01/01 12:46:28;;;;;;;;;;;16.60;99.90;;;;;;7347239;19;113326;-89
2022/01/01 12:48:57;;;;;;;;;;;16.70;99.90;;;;;;7343347;19;112592;-88
2022/01/01 12:51:25;;;;;;;;;;;16.80;99.90;;;;;;7346155;19;109448;-88
2022/01/01 12:53:53;;;;;;;;;;;17.00;99.90;;;;;;7345196;19;109751;-87
2022/01/01 12:57:01;;;;;;;;;;;17.10;99.90;;;;;;7346913;19;112774;-87
2022/01/01 12:59:55;;;;;;;;;;;17.10;99.90;;;;;;7344992;19;109698;-87
2022/01/01 13:02:23;;;;;;;;;;;17.20;99.90;;;;;;7345601;19;113407;-86
2022/01/01 13:04:50;;;;;;;;;;;17.40;99.90;;;;;;7342057;19;109463;-87
2022/01/01 13:07:18;;;;;;;;;;;17.40;99.90;;;;;;7344081;19;110951;-87
2022/01/01 13:09:45;;;;;;;;;;;17.50;99.90;;;;;;7344869;19;117288;-87
2022/01/01 13:12:17;;;;;;;;;;;17.60;99.90;;;;;;7342998;19;110640;-87
2022/01/01 13:14:44;;;;;;;;;;;17.60;99.90;;;;;;7344304;19;111190;-88
2022/01/01 13:17:11;;;;;;;;;;;17.70;99.90;;;;;;7343392;19;115109;-89
2022/01/01 13:19:39;;;;;;;;;;;17.70;99.90;;;;;;7340528;19;110613;-89
2022/01/01 13:22:08;;;;;;;;;;;17.70;99.90;;;;;;7345381;19;112678;-86
2022/01/01 13:24:37;;;;;;;;;;;17.50;99.90;;;;;;7349888;19;113659;-89
2022/01/01 13:27:05;;;;;;;;;;;17.40;99.90;;;;;;7349193;19;112767;-87
2022/01/01 13:29:32;;;;;;;;;;;17.40;99.90;;;;;;7341605;19;116048;-87
2022/01/01 13:32:00;;;;;;;;;;;17.30;99.90;;;;;;7346695;19;110701;-88
2022/01/01 13:34:27;;;;;;;;;;;17.20;99.90;;;;;;7342810;19;113828;-89
2022/01/01 13:37:04;;;;;;;;;;;17.10;99.90;;;;;;7346662;19;110936;-88
2022/01/01 13:39:31;;;;;;;;;;;17.10;99.90;;;;;;7344628;19;110121;-87
2022/01/01 13:41:59;;;;;;;;;;;17.10;99.90;;;;;;7343264;19;112919;-88
2022/01/01 13:44:28;;;;;;;;;;;17.10;99.90;;;;;;7350609;19;113638;-89
2022/01/01 13:47:29;;;;;;;;;;;17.10;99.90;;;;;;7337391;19;113787;-89
2022/01/01 13:49:58;;;;;;;;;;;17.10;99.90;;;;;;7342876;19;114181;-87
2022/01/01 13:52:27;;;;;;;;;;;17.10;99.90;;;;;;7343376;19;111308;-89
2022/01/01 13:54:54;;;;;;;;;;;17.00;99.90;;;;;;7342121;19;110712;-88
2022/01/01 13:57:22;;;;;;;;;;;17.00;99.90;;;;;;7342818;19;114367;-87
2022/01/01 13:59:52;;;;;;;;;;;17.00;99.90;;;;;;7343142;19;109314;-89
2022/01/01 14:02:21;;;;;;;;;;;17.00;99.90;;;;;;7343952;19;111152;-87
2022/01/01 14:04:54;;;;;;;;;;;16.90;99.90;;;;;;7341727;19;114924;-87
2022/01/01 14:07:41;;;;;;;;;;;16.90;99.90;;;;;;7352263;19;110847;-88
2022/01/01 14:10:14;;;;;;;;;;;16.90;99.90;;;;;;7341228;19;114681;-87
2022/01/01 14:12:42;;;;;;;;;;;16.90;99.90;;;;;;7344704;19;109474;-87
2022/01/01 14:15:14;;;;;;;;;;;17.00;99.90;;;;;;7341716;19;113553;-88
2022/01/01 14:17:49;;;;;;;;;;;17.00;99.90;;;;;;7341556;19;112590;-89
2022/01/01 14:20:35;;;;;;;;;;;17.00;99.90;;;;;;7345240;19;109509;-88
2022/01/01 14:23:03;;;;;;;;;;;16.90;99.90;;;;;;7342910;19;113621;-86
2022/01/01 14:25:31;;;;;;;;;;;17.00;99.90;;;;;;7345817;19;113954;-88
2022/01/01 14:27:59;;;;;;;;;;;16.90;99.90;;;;;;7342152;19;109812;-88
2022/01/01 14:30:30;;;;;;;;;;;17.00;99.90;;;;;;7348495;19;112157;-89
2022/01/01 14:32:58;;;;;;;;;;;16.90;99.90;;;;;;7342172;19;110999;-89
2022/01/01 14:35:34;;;;;;;;;;;16.80;99.90;;;;;;7344664;19;113599;-89
2022/01/01 14:38:04;;;;;;;;;;;16.80;99.90;;;;;;7341183;19;115590;-87
2022/01/01 14:40:32;;;;;;;;;;;16.80;99.90;;;;;;7341688;19;109596;-88
2022/01/01 14:43:01;;;;;;;;;;;16.70;99.90;;;;;;7343294;19;113438;-87
2022/01/01 14:45:30;;;;;;;;;;;16.60;99.90;;;;;;7340558;19;114976;-87
2022/01/01 14:48:11;;;;;;;;;;;16.60;99.90;;;;;;7344583;19;109587;-88
2022/01/01 14:50:48;;;;;;;;;;;16.50;99.90;;;;;;7338435;19;111945;-89
2022/01/01 14:53:23;;;;;;;;;;;16.40;99.90;;;;;;7348352;19;113759;-88
2022/01/01 14:55:59;;;;;;;;;;;16.40;99.90;;;;;;7340094;19;111691;-88
2022/01/01 14:58:30;;;;;;;;;;;16.30;99.90;;;;;;7341444;19;110646;-89
2022/01/01 15:00:57;;;;;;;;;;;16.30;99.90;;;;;;7340276;19;109674;-87
2022/01/01 15:03:25;;;;;;;;;;;16.20;99.90;;;;;;7342819;19;110067;-88
2022/01/01 15:05:52;;;;;;;;;;;16.20;99.90;;;;;;7341517;19;110500;-88
2022/01/01 15:08:21;;;;;;;;;;;16.10;99.90;;;;;;7340553;19;110070;-87
2022/01/01 15:10:50;;;;;;;;;;;16.00;99.90;;;;;;7342833;19;111371;-87
2022/01/01 15:13:17;;;;;;;;;;;15.90;99.90;;;;;;7337541;19;115247;-88
2022/01/01 15:15:45;;;;;;;;;;;15.80;99.90;;;;;;7348143;19;110474;-87
2022/01/01 15:18:22;;;;;;;;;;;15.80;99.90;;;;;;7339955;19;115241;-87
2022/01/01 15:20:52;;;;;;;;;;;15.70;99.90;;;;;;7341090;19;109390;-87
2022/01/01 15:23:39;;;;;;;;;;;15.70;99.90;;;;;;7342898;19;110932;-88
2022/01/01 15:26:07;;;;;;;;;;;15.60;99.90;;;;;;7338269;19;113863;-88
2022/01/01 15:28:36;;;;;;;;;;;15.60;99.90;;;;;;7342575;19;109482;-87
2022/01/01 15:31:12;;;;;;;;;;;15.50;99.90;;;;;;7337220;19;112993;-87
2022/01/01 15:33:41;;;;;;;;;;;15.40;99.90;;;;;;7342164;19;112149;-85
2022/01/01 15:38:47;;;;;;;;;;;15.30;99.90;;;;;;7346979;19;115546;-87
2022/01/01 15:43:49;;;;;;;;;;;15.20;99.90;;;;;;7346158;19;112715;-87
2022/01/01 15:46:17;;;;;;;;;;;15.10;99.90;;;;;;7348909;19;112434;-88
2022/01/01 15:48:44;;;;;;;;;;;15.10;99.90;;;;;;7346169;19;109444;-86
2022/01/01 15:51:11;;;;;;;;;;;15.00;99.90;;;;;;7350407;19;114208;-88
2022/01/01 15:53:40;;;;;;;;;;;14.90;99.90;;;;;;7344081;19;110533;-86
2022/01/01 15:56:08;;;;;;;;;;;14.90;99.90;;;;;;7349923;19;110907;-87
2022/01/01 15:58:52;;;;;;;;;;;14.90;99.90;;;;;;7344015;19;112264;-87
2022/01/01 16:01:28;;;;;;;;;;;14.80;99.90;;;;;;7347737;19;110649;-88
2022/01/01 16:04:08;;;;;;;;;;;14.80;99.90;;;;;;7346261;19;111611;-88
2022/01/01 16:06:37;;;;;;;;;;;14.70;99.90;;;;;;7345121;19;112480;-88
2022/01/01 16:09:05;;;;;;;;;;;14.70;99.90;;;;;;7347946;19;109373;-86
2022/01/01 16:11:35;;;;;;;;;;;14.70;99.90;;;;;;7346664;19;109359;-87
2022/01/01 16:14:03;;;;;;;;;;;14.60;99.90;;;;;;7349628;19;112207;-87
2022/01/01 16:16:33;;;;;;;;;;;14.60;99.90;;;;;;7344794;19;110092;-87
2022/01/01 16:19:07;;;;;;;;;;;14.60;99.90;;;;;;7346409;19;111973;-86
2022/01/01 16:21:35;;;;;;;;;;;14.50;99.90;;;;;;7350787;19;110242;-87
2022/01/01 16:24:02;;;;;;;;;;;14.50;99.90;;;;;;7343256;19;113050;-86
2022/01/01 16:26:30;;;;;;;;;;;14.50;99.90;;;;;;7348186;19;110751;-86
2022/01/01 16:28:57;;;;;;;;;;;14.50;99.90;;;;;;7341412;19;110350;-86
2022/01/01 16:31:24;;;;;;;;;;;14.50;99.90;;;;;;7345543;19;114431;-87
2022/01/01 16:33:52;;;;;;;;;;;14.50;99.90;;;;;;7343227;19;115285;-88
2022/01/01 16:36:23;;;;;;;;;;;14.40;99.90;;;;;;7345947;19;109480;-87
2022/01/01 16:38:51;;;;;;;;;;;14.30;99.90;;;;;;7343609;19;112146;-87
2022/01/01 16:41:23;;;;;;;;;;;14.30;99.90;;;;;;7344003;19;111719;-88
2022/01/01 16:47:20;;;;;;;;;;;14.30;99.90;;;;;;7343378;19;111295;-88
2022/01/01 16:49:55;;;;;;;;;;;14.30;99.90;;;;;;7345971;19;109985;-88
2022/01/01 16:52:25;;;;;;;;;;;14.20;99.90;;;;;;7347454;19;111934;-88
2022/01/01 16:55:03;;;;;;;;;;;14.20;99.90;;;;;;7344176;19;115433;-89
2022/01/01 16:57:33;;;;;;;;;;;14.20;99.90;;;;;;7347804;19;109354;-87
2022/01/01 17:00:04;;;;;;;;;;;14.10;99.90;;;;;;7338739;19;114307;-87
2022/01/01 17:02:32;;;;;;;;;;;14.10;99.90;;;;;;7346585;19;114758;-88
2022/01/01 17:05:05;;;;;;;;;;;14.00;99.90;;;;;;7342841;19;110960;-87
2022/01/01 17:07:36;;;;;;;;;;;14.00;99.90;;;;;;7349394;19;113905;-88
2022/01/01 17:10:05;;;;;;;;;;;14.00;99.90;;;;;;7344183;19;109505;-89
2022/01/01 17:12:34;;;;;;;;;;;13.90;99.90;;;;;;7342798;19;113899;-88
2022/01/01 17:15:03;;;;;;;;;;;13.80;99.90;;;;;;7349712;19;115224;-86
2022/01/01 17:17:32;;;;;;;;;;;13.80;99.90;;;;;;7343322;19;109920;-87
2022/01/01 17:20:12;;;;;;;;;;;13.70;99.90;;;;;;7345608;19;113368;-87
2022/01/01 17:22:42;;;;;;;;;;;13.80;99.90;;;;;;7343554;19;114966;-89
2022/01/01 17:25:27;;;;;;;;;;;13.70;99.90;;;;;;7346157;19;109480;-88
2022/01/01 17:28:08;;;;;;;;;;;13.70;99.90;;;;;;7348493;19;114060;-88
2022/01/01 17:30:36;;;;;;;;;;;13.80;99.90;;;;;;7347382;19;114702;-88
2022/01/01 17:33:23;;;;;;;;;;;13.80;99.90;;;;;;7347493;19;113858;-87
2022/01/01 17:36:17;;;;;;;;;;;;;;;;;;;;;
2022/01/01 17:42:13;;;;;;;;;;;13.70;99.90;;;;;;7343147;19;112948;-89
2022/01/01 17:44:41;;;;;;;;;;;13.60;99.90;;;;;;7341924;19;115107;-87
2022/01/01 17:47:18;;;;;;;;;;;13.60;99.90;;;;;;7341659;19;109722;-88
2022/01/01 17:49:46;;;;;;;;;;;13.50;99.90;;;;;;7344597;19;114500;-88
2022/01/01 17:52:16;;;;;;;;;;;13.50;99.90;;;;;;7340599;19;114120;-87
2022/01/01 17:54:43;;;;;;;;;;;13.50;99.90;;;;;;7349179;19;109361;-88
2022/01/01 17:57:11;;;;;;;;;;;13.50;99.90;;;;;;7340038;19;114952;-88
2022/01/01 17:59:42;;;;;;;;;;;13.50;99.90;;;;;;7342149;19;109327;-89
2022/01/01 18:02:11;;;;;;;;;;;13.60;99.90;;;;;;7340588;19;113112;-88
2022/01/01 18:04:39;;;;;;;;;;;13.50;99.90;;;;;;7343296;19;114607;-87
2022/01/01 18:07:20;;;;;;;;;;;13.50;99.90;;;;;;7344123;19;109864;-91
2022/01/01 18:13:01;;;;;;;;;;;13.50;99.90;;;;;;7345027;19;109353;-89
2022/01/01 18:15:29;;;;;;;;;;;13.50;99.90;;;;;;7348210;19;109977;-89
2022/01/01 18:17:58;;;;;;;;;;;13.50;99.90;;;;;;7342342;19;112245;-88
2022/01/01 18:20:26;;;;;;;;;;;13.60;99.90;;;;;;7344337;19;109960;-88
2022/01/01 18:22:55;;;;;;;;;;;13.50;99.90;;;;;;7342426;19;113295;-88
2022/01/01 18:26:02;;;;;;;;;;;13.50;99.90;;;;;;7345388;19;113849;-89
2022/01/01 18:31:46;;;;;;;;;;;13.50;99.90;;;;;;7344904;19;113014;-90
2022/01/01 18:34:42;;;;;;;;;;;13.40;99.90;;;;;;7344230;19;114032;-89
2022/01/01 18:37:23;;;;;;;;;;;13.40;99.90;;;;;;7343187;19;109497;-88
2022/01/01 18:40:12;;;;;;;;;;;13.40;99.90;;;;;;7347574;19;111724;-88
2022/01/01 18:42:51;;;;;;;;;;;13.40;99.90;;;;;;7345896;19;109338;-89
2022/01/01 18:45:45;;;;;;;;;;;13.30;99.90;;;;;;7342323;19;113841;-88
2022/01/01 18:48:31;;;;;;;;;;;13.30;99.90;;;;;;7344501;19;113408;-88
2022/01/01 18:51:18;;;;;;;;;;;13.30;99.90;;;;;;7341929;19;109864;-88
2022/01/01 18:54:08;;;;;;;;;;;13.30;99.90;;;;;;7344374;19;113163;-89
2022/01/01 18:56:46;;;;;;;;;;;13.30;99.90;;;;;;7346084;19;113756;-90
2022/01/01 18:59:25;;;;;;;;;;;13.30;99.90;;;;;;7343233;19;110807;-90
2022/01/01 19:01:53;;;;;;;;;;;13.30;99.90;;;;;;7342523;19;110219;-88
2022/01/01 19:04:25;;;;;;;;;;;13.20;99.90;;;;;;7346220;19;114103;-90
2022/01/01 19:06:55;;;;;;;;;;;13.20;99.90;;;;;;7342682;19;111588;-87
2022/01/01 19:09:30;;;;;;;;;;;13.20;99.90;;;;;;7344564;19;113924;-90
2022/01/01 19:12:03;;;;;;;;;;;13.20;99.90;;;;;;7340984;19;109580;-89
2022/01/01 19:14:33;;;;;;;;;;;13.20;99.90;;;;;;7345391;19;111177;-90
2022/01/01 19:17:14;;;;;;;;;;;13.20;99.90;;;;;;7341045;19;112881;-89
2022/01/01 19:19:44;;;;;;;;;;;13.20;99.90;;;;;;7349119;19;109325;-89
2022/01/01 19:22:24;;;;;;;;;;;13.20;99.90;;;;;;7350579;19;113455;-89
2022/01/01 19:24:59;;;;;;;;;;;13.20;99.90;;;;;;7348001;19;113618;-89
2022/01/01 19:27:39;;;;;;;;;;;13.20;99.90;;;;;;7357704;19;109493;-88
2022/01/01 20:04:14;;;;;;;;;;;13.20;99.90;;;;;;7349049;19;110485;-85
2022/01/01 20:06:41;;;;;;;;;;;13.20;99.90;;;;;;7351775;19;114058;-85
2022/01/01 20:09:09;;;;;;;;;;;13.10;99.90;;;;;;7346735;19;110668;-85
2022/01/01 20:11:36;;;;;;;;;;;13.10;99.90;;;;;;7348981;19;109562;-86